ADDS METAR Data INFO
IDs: Format: Raw Decoded Include TAF

Data at: 2032 UTC 16 Dec 2017

PAMH 162026Z AUTO 00000KT 9SM -SN SCT011 OVC019 M06/M06 A2914 RMK AO2 P0000 FZRANO
PAMH 161956Z 00000KT 4SM OVC011 M05/M06 A2913 RMK AO2 SLP292 PWINO FZRANO RVRNO
PAMH 161856Z AUTO 23003KT 9SM -SN BKN007 M05/M06 A2912 RMK AO2 SLP883 P0000 T10501061 FZRANO
PAMH 161841Z AUTO 24004KT 5SM -SN BR SCT007 BKN014 BKN110 M05/M06 A2912 RMK AO2 P0000 FZRANO
PAMH 161836Z AUTO 24004KT 4SM -SN BR FEW007 SCT016 BKN110 M04/M05 A2911 RMK AO2 P0000 FZRANO
PAMH 161816Z AUTO 00000KT 5SM -SN BR BKN018 OVC023 M04/M06 A2911 RMK AO2 P0000 FZRANO
PAMH 161811Z 00000KT 3SM BKN018 OVC023 M04/M06 A2911 RMK AO2 SLP292 P0998 PWINO FZRANO RVRNO
PAMH 161756Z 00000KT 2 1/2SM BKN018 OVC023 M04/M05 A2911 RMK AO2 SLP292 P0002 60002 11040 21050 52010 PWINO FZRANO RVRNO
PAMH 161659Z AUTO 00000KT 9SM -SN FEW008 SCT013 OVC018 M04/M05 A2910 RMK AO2 P0000 FZRANO
PAMH 161656Z 00000KT 9SM SCT010 BKN013 OVC018 M04/M05 A2909 RMK AO2 SLP291 PWINO FZRANO RVRNO
PAMH 161629Z AUTO 00000KT 6SM -SN BR OVC012 M04/M05 A2909 RMK AO2 P0000 FZRANO
PAMH 161624Z 00000KT 3SM OVC012 M04/M05 A2909 RMK AO2 SLP291 PWINO FZRANO RVRNO
PAMH 161621Z 00000KT 2SM OVC014 M04/M05 A2909 RMK AO2 SLP291 PWINO FZRANO RVRNO
PAMH 161620Z AUTO 00000KT 2SM -SN BR OVC014 M04/M05 A2909 RMK AO2 VIS 1 1/4V5 P0000 FZRANO
PAMH 161615Z 00000KT 1SM OVC014 M04/M05 A2909 RMK AO2 SLP291 PWINO FZRANO RVRNO
PAMH 161614Z AUTO 00000KT 1SM -SN BR OVC014 M04/M05 A2909 RMK AO2 P0000 FZRANO
PAMH 161556Z AUTO VRB04KT 1/2SM SN FZFG OVC014 M04/M05 A2908 RMK AO2 SLP869 P0000 T10391050 FZRANO
PAMH 161540Z AUTO VRB05KT 3/4SM -SN BR BKN014 OVC022 M04/M05 A2907 RMK AO2 P0000 FZRANO
PAMH 161529Z AUTO VRB04KT 1/2SM SN FZFG BKN012 OVC022 M04/M05 A2908 RMK AO2 P0000 FZRANO
PAMH 161526Z VRB03KT 3/4SM BKN012 OVC019 M04/M05 A2908 RMK AO2 SLP291 PWINO FZRANO RVRNO
PAMH 161523Z AUTO VRB03KT 1SM -SN BR BKN012 OVC019 M04/M05 A2908 RMK AO2 P0000 FZRANO
PAMH 161519Z VRB04KT 1 3/4SM OVC012 M04/M05 A2909 RMK AO2 SLP291 PWINO FZRANO RVRNO
PAMH 161456Z AUTO VRB03KT 2SM -SN BR OVC014 M04/M05 A2908 RMK AO2 VIS 1 1/4V3 SNB1357 SLP868 P0000 60000 T10391050 53000 FZRANO
PAMH 161449Z AUTO 00000KT 1 1/2SM -SN BR OVC014 M04/M05 A2909 RMK AO2 SNB1357 P0000 FZRANO
PAMH 161438Z AUTO 00000KT 1SM -SN BR OVC016 M04/M05 A2909 RMK AO2 SNB1357 P0000 FZRANO
PAMH 161434Z 00000KT 1 1/2SM BKN016 OVC075 M04/M05 A2909 RMK AO2 SLP291 PWINO FZRANO RVRNO
PAMH 161424Z VRB03KT 2 1/2SM BKN018 OVC075 M04/M05 A2909 RMK AO2 SLP291 PWINO FZRANO RVRNO
PAMH 161423Z AUTO VRB03KT 2 1/2SM -SN BR BKN018 OVC075 M04/M05 A2909 RMK AO2 VIS 1 3/4V5 SNB1357 P0000 FZRANO
PAMH 161356Z AUTO 00000KT 10SM OVC080 M04/M06 A2908 RMK AO2 SLP868 T10441056 FZRANO
PAMH 161256Z AUTO 00000KT 10SM OVC085 M04/M06 A2908 RMK AO2 SLP867 T10441056 FZRANO
PAMH 161156Z 00000KT 10SM BKN100 M04/M06 A2908 RMK AO2 SLP291 11040 21060 57017 PWINO FZRANO RVRNO
PAMH 161056Z AUTO 00000KT 10SM OVC120 M06/M07 A2910 RMK AO2 SLP874 T10561067 FZRANO
PAMH 160956Z AUTO 00000KT 10SM OVC100 M06/M07 A2911 RMK AO2 SLP878 T10611067 FZRANO
PAMH 160856Z AUTO 00000KT 10SM OVC100 M06/M07 A2913 RMK AO2 SLP884 T10611072 410331061 58021 FZRANO
PAMH 160756Z AUTO 00000KT 10SM OVC100 M06/M07 A2916 RMK AO2 SLP894 T10561072 FZRANO
PAMH 160656Z AUTO 00000KT 10SM BKN090 OVC120 M06/M07 A2918 RMK AO2 SLP902 T10611072 FZRANO
PAMH 160556Z AUTO 00000KT 10SM OVC070 M06/M07 A2919 RMK AO2 SLP906 60000 T10611067 11056 21061 56022 FZRANO
PAMH 160456Z AUTO 00000KT 10SM OVC065 M06/M07 A2921 RMK AO2 SLP912 T10561067 FZRANO
PAMH 160356Z AUTO 00000KT 10SM OVC080 M06/M07 A2923 RMK AO2 SNB10E22 SLP919 P0000 T10561067 FZRANO
PAMH 160256Z AUTO 00000KT 10SM FEW006 OVC085 M06/M06 A2926 RMK AO2 SLP928 T10561061 58027 FZRANO
PAMH 160210Z AUTO 05004KT 10SM BKN008 BKN012 OVC100 M06/M07 A2927 RMK AO2 PRESFR FZRANO
PAMH 160156Z AUTO VRB03KT 10SM BKN010 OVC100 M06/M07 A2929 RMK AO2 CIG 008V013 SLP940 T10561067 FZRANO
PAMH 160120Z AUTO 00000KT 10SM OVC010 M06/M07 A2930 RMK AO2 CIG 007V013 FZRANO
PAMH 160056Z 00000KT 10SM BKN006 OVC011 M06/M07 A2931 RMK AO2 SLP294 PWINO FZRANO RVRNO
PAMH 152356Z AUTO 00000KT 10SM OVC008 M06/M07 A2934 RMK AO2 SLP955 60000 T10561067 11039 21061 58019 FZRANO
PAMH 152344Z AUTO 00000KT 10SM BKN008 BKN090 M06/M07 A2934 RMK AO2 FZRANO
PAMH 152256Z AUTO 00000KT 10SM FEW100 M06/M07 A2936 RMK AO2 SLP962 T10561067 FZRANO
PAMH 152156Z AUTO 00000KT 10SM CLR M05/M06 A2938 RMK AO2 SLP971 T10501061 FZRANO
PAMH 152115Z AUTO 00000KT 10SM SCT009 M06/M06 A2939 RMK AO2 FZRANO
PAMH 152056Z 00000KT 10SM OVC009 M05/M06 A2940 RMK AO2 SLP295 57020 PWINO FZRANO RVRNO
PAMH 152038Z AUTO 00000KT 10SM BKN009 M06/M06 A2940 RMK AO2 FZRANO
PAMH 152013Z AUTO 00000KT 10SM SCT007 M05/M06 A2940 RMK AO2 FZRANO
PAMH 152003Z AUTO 21003KT 10SM BKN007 M05/M06 A2941 RMK AO2 FZRANO
PAMH 151956Z AUTO 00000KT 10SM BKN005 M04/M06 A2941 RMK AO2 UPB34E51SNE34B38E47 SLP978 P0000 T10441056 FZRANO
PAMH 151856Z 00000KT 9SM OVC005 M04/M04 A2946 RMK AO2 SLP295 PWINO FZRANO RVRNO
PAMH 151756Z 00000KT 10SM OVC005 M05/M06 A2946 RMK AO2 SLP295 11040 21050 57027 PWINO FZRANO RVRNO
PAMH 151656Z AUTO 00000KT 8SM -SN OVC003 M05/M06 A2949 RMK AO2 SNE09B45 SLP006 P0000 T10501056 FZRANO
PAMH 151556Z AUTO 00000KT 8SM -SN OVC003 M04/M06 A2951 RMK AO2 SLP015 P0000 T10441056 FZRANO
PAMH 151520Z AUTO 00000KT 8SM -SN OVC003 M04/M05 A2952 RMK AO2 P0000 FZRANO
PAMH 151456Z AUTO 00000KT 9SM -SN OVC005 M05/M06 A2954 RMK AO2 UPE34SNB50 SLP023 P0000 60000 T10501056 55009 FZRANO
PAMH 151434Z AUTO 00000KT 10SM BKN005 OVC050 M04/M06 A2954 RMK AO2 UPE34 P0000 FZRANO
PAMH 151426Z AUTO 00000KT 10SM UP SCT005 BKN050 OVC080 M04/M06 A2953 RMK AO2 P0000 FZRANO
PAMH 151356Z 00000KT 10SM -UP SCT012 BKN075 OVC095 M04/M06 A2954 RMK AO2 UPB55 SLP296 PWINO FZRANO RVRNO
PAMH 151256Z 00000KT 9SM BKN036 OVC100 M04/M05 A2955 RMK AO2 UPE1157E1158E1159E00E01E02E03E05E06E07E08E09E10E11B12E47 SLP296 PWINO FZRANO RVRNO
PAMH 151238Z AUTO 00000KT 10SM UP SCT009 OVC038 M04/M04 A2955 RMK AO2 UPB11SNE11 P0000 FZRANO
PAMH 151219Z AUTO 00000KT 10SM UP OVC009 M04/M04 A2956 RMK AO2 UPB11SNE11 P0000 FZRANO
PAMH 151156Z AUTO 00000KT 10SM -SN BKN011 OVC040 M04/M04 A2956 RMK AO2 UPE56SNB56 SLP032 P0000 60000 T10391044 11033 21039 51003 FZRANO
PAMH 151149Z AUTO 00000KT 10SM UP BKN011 OVC040 M04/M04 A2956 RMK AO2 P0000 FZRANO
PAMH 151056Z 00000KT 10SM -UP OVC044 M04/M04 A2956 RMK AO2 UPB28 SLP296 PWINO FZRANO RVRNO
PAMH 150956Z AUTO 00000KT 9SM -SN SCT044 OVC120 M04/M04 A2956 RMK AO2 SLP032 P0000 T10391044 FZRANO
PAMH 150856Z AUTO VRB03KT 9SM -SN FEW046 SCT120 M03/M04 A2956 RMK AO2 SLP029 P0000 60000 T10331044 410331089 51005 FZRANO